Terminal Aerodrome Forecast
Issued by NWS

Home | Current Version | Previous Version | Text Only | Print | Product List | Glossary On
Versions: 1 2 3 4 5 6 7 8 9 10 11 12 13 14 15 16 17 18
000
FTUS44 KSJT 181600 AAA
TAFBBD
TAF AMD
KBBD 181621Z 1816/1912 VRB04KT 1/2SM FG OVC002
     FM181800 VRB04KT 5SM BR OVC015
     FM182200 VRB05KT P6SM SCT025 BKN100
     FM190300 05006KT P6SM BKN012
     FM190400 05006KT 3SM BR BKN006
     FM190700 02008KT 2SM BR OVC003=

USA.gov is the U.S. government's official web portal to all federal, state and local government web resources and services.